Flight Track Log - Related Links

Times and Time Zones

All times are in EST time to prevent confusion due to time zone crossing. See the N244A flight status page for this flight to view local times or setup timezone preferences in your user account.

Time Position Orientation Groundspeed Altitude Reporting Facility
EST Latitude Longitude Course Direction KTS MPH feet Rate Location/Type
Mon 05:03:28 PM 25.3514 -80.2572 346° North 175 201 1,500  Level Miami Center
Mon 05:04:41 PM 25.4283 -80.2778 346° North 261 300 4,700 2,804 Climbing Miami Center
Mon 05:05:00 PM 25.4550 -80.2947 330° Northwest 289 333 5,800 3,836 Climbing Miami Center
Mon 05:05:42 PM 25.4919 -80.3303 319° Northwest 298 343 8,600 3,800 Climbing Miami Center
Mon 05:06:00 PM 25.5206 -80.3519 326° Northwest 304 350 9,600 3,049 Climbing Miami Center
Mon 05:06:43 PM 25.5656 -80.3900 323° Northwest 333 383 11,700 2,700 Climbing Miami Center
Mon 05:07:00 PM 25.6014 -80.3842 North 351 404 12,300 2,557 Climbing Miami Center
Mon 05:07:44 PM 25.6664 -80.3675 13° North 374 430 14,300 2,400 Climbing Miami Center
Mon 05:08:00 PM 25.7022 -80.3525 21° North 376 433 14,700 1,342 Climbing Miami Center
Mon 05:09:00 PM 25.8072 -80.3347 North 453 521 16,000 1,250 Climbing Miami Center
Mon 05:10:00 PM 25.9131 -80.3678 344° North 439 505 17,200 1,950 Climbing Miami Center
Mon 05:11:00 PM 26.0267 -80.4106 341° North 439 505 19,900 2,850 Climbing Miami Center
Mon 05:12:00 PM 26.1411 -80.4300 351° North 428 493 22,900 1,800 Climbing Miami Center
Mon 05:13:00 PM 26.2767 -80.4364 358° North 428 493 23,500 1,600 Climbing Miami Center
Mon 05:14:00 PM 26.3994 -80.4586 351° North 445 512 26,100 2,650 Climbing Miami Center
Mon 05:15:00 PM 26.5089 -80.5083 349° North 424 488 28,800 1,800 Climbing Miami Center
Mon 05:16:00 PM 26.6206 -80.5561 339° North 424 488 29,700 900 Climbing Miami Center
Mon 05:17:00 PM 26.7425 -80.6017 342° North 446 513 30,600 600 Climbing Miami Center
Mon 05:18:00 PM 26.8667 -80.6500 341° North 456 525 30,900 200 Climbing Miami Center
Mon 05:19:00 PM 26.9906 -80.7006 340° North 463 533 31,000  Climbing Miami Center
Mon 05:20:00 PM 27.1164 -80.7514 340° North 468 539 30,900 -50 Descending Miami Center
Mon 05:21:00 PM 27.2406 -80.8022 340° North 473 544 30,900  Level Miami Center
Mon 05:22:00 PM 27.3519 -80.8506 339° North 473 544 30,900 50 Level Miami Center
Mon 05:23:00 PM 27.4800 -80.8994 341° North 473 544 31,000  Climbing Miami Center
Mon 05:24:00 PM 27.6078 -80.9531 340° North 479 551 30,900 -50 Descending Miami Center
Mon 05:25:00 PM 27.7336 -81.0044 340° North 485 558 30,900  Level Miami Center
Mon 05:26:00 PM 27.8658 -81.0564 341° North 485 558 30,900 50 Level Miami Center
Mon 05:27:00 PM 27.9894 -81.1081 340° North 485 558 31,000 50 Climbing Miami Center
Mon 05:28:00 PM 28.1256 -81.1647 340° North 485 558 31,000  Level Miami Center
Mon 05:29:00 PM 28.2533 -81.2192 339° North 485 558 31,000  Level Miami Center
Mon 05:30:37 PM 28.4489 -81.3014 340° North 523 602 31,000 -306 Level Jacksonville Center
Mon 05:31:37 PM 28.5808 -81.3442 344° North 498 573 30,200 -1,150 Descending Jacksonville Center
Mon 05:32:37 PM 28.7186 -81.3514 357° North 492 566 28,700 -1,600 Descending Jacksonville Center
Mon 05:33:37 PM 28.8544 -81.3564 358° North 487 560 27,000 -2,000 Descending Jacksonville Center
Mon 05:34:37 PM 28.9842 -81.3828 350° North 480 552 24,700 -2,500 Descending Jacksonville Center
Mon 05:35:37 PM 29.0958 -81.4619 328° Northwest 467 537 22,000 -2,100 Descending Jacksonville Center
Mon 05:36:37 PM 29.1969 -81.5486 323° Northwest 456 525 20,500 -1,515 Descending Jacksonville Center
Mon 05:37:16 PM 29.2786 -81.5975 332° Northwest 438 504 19,500 -1,600 Descending Jacksonville Center
Mon 05:37:37 PM 29.3142 -81.6042 351° North 415 478 18,900 -1,837 Descending Jacksonville Center
Mon 05:38:05 PM 29.3728 -81.6058 359° North 452 520 18,000 -2,000 Descending Jacksonville Center
Mon 05:38:37 PM 29.4417 -81.5978 North 420 483 16,900 -1,612 Descending Jacksonville Center
Mon 05:39:12 PM 29.5144 -81.5847 North 438 504 16,200 -1,200 Descending Jacksonville Center
Mon 05:39:37 PM 29.5606 -81.5842 North 428 493 15,700 -1,475 Descending Jacksonville Center
Mon 05:40:13 PM 29.6272 -81.5808 North 397 457 14,700 -1,900 Descending Jacksonville Center
Mon 05:40:37 PM 29.6711 -81.5850 355° North 409 471 13,800 -2,066 Descending Jacksonville Center
Mon 05:41:14 PM 29.7358 -81.5889 357° North 391 450 12,600 -1,800 Descending Jacksonville Center
Mon 05:41:37 PM 29.7775 -81.5933 355° North 398 458 12,000 -1,343 Descending Jacksonville Center
Mon 05:42:21 PM 29.8592 -81.5992 356° North 374 430 11,100 -1,200 Descending Jacksonville Center
Mon 05:42:37 PM 29.8819 -81.5989 North 378 435 10,800 -1,254 Descending Jacksonville Center
Mon 05:43:28 PM 29.9486 -81.5767 16° North 302 348 9,700 -1,300 Descending Jacksonville Center
Mon 05:43:37 PM 29.9611 -81.5667 35° Northeast 323 372 9,500 -2,182 Descending Jacksonville Center
Mon 05:44:23 PM 30.0150 -81.5325 29° Northeast 290 334 7,700 -2,200 Descending Jacksonville Center
Mon 05:44:37 PM 30.0336 -81.5275 13° North 300 345 7,300 -2,262 Descending Jacksonville Center
Mon 05:45:24 PM 30.0961 -81.5169 North 283 326 5,400 -2,200 Descending Jacksonville Center
Mon 05:45:37 PM 30.1131 -81.5192 354° North 290 334 5,100 -269 Descending Jacksonville Center
Mon 05:46:31 PM 30.1775 -81.5108 North 251 289 5,100 -100 Level Jacksonville Center
Mon 05:46:37 PM 30.1839 -81.5133 341° North 274 315 5,000  Descending Jacksonville Center
Mon 05:47:32 PM 30.2464 -81.5053 North 253 291 5,100  Climbing Jacksonville Center
Mon 05:48:33 PM 30.3236 -81.4969 North 255 293 5,000 -341 Descending Jacksonville Center
Mon 05:49:35 PM 30.3944 -81.4886 North 257 296 4,400 -934 Descending Jacksonville Center
Mon 05:50:35 PM 30.4717 -81.4778 North 280 322 3,100 -1,300 Descending Jacksonville Center

Login

Don't have an account? Register now (free) for customized features, flight alerts, and more!